sensor_id;sensor_type;location;lat;lon;timestamp;temperature;humidity
20700;DHT22;10511;51.232;9.420;2022-12-18T00:02:20;-6.90;99.90
20700;DHT22;10511;51.232;9.420;2022-12-18T00:04:47;-7.00;99.90
20700;DHT22;10511;51.232;9.420;2022-12-18T00:07:14;-6.90;99.90
20700;DHT22;10511;51.232;9.420;2022-12-18T00:09:41;-6.90;99.90
20700;DHT22;10511;51.232;9.420;2022-12-18T00:12:08;-6.80;99.90
20700;DHT22;10511;51.232;9.420;2022-12-18T00:14:35;-6.80;99.90
20700;DHT22;10511;51.232;9.420;2022-12-18T00:17:02;-6.80;99.90
20700;DHT22;10511;51.232;9.420;2022-12-18T00:19:30;-6.90;99.90
20700;DHT22;10511;51.232;9.420;2022-12-18T00:21:57;-6.90;99.90
20700;DHT22;10511;51.232;9.420;2022-12-18T00:24:24;-7.10;99.90
20700;DHT22;10511;51.232;9.420;2022-12-18T00:26:51;-7.10;99.90
20700;DHT22;10511;51.232;9.420;2022-12-18T00:29:18;-7.00;99.90
20700;DHT22;10511;51.232;9.420;2022-12-18T00:31:46;-6.90;99.90
20700;DHT22;10511;51.232;9.420;2022-12-18T00:34:13;-6.90;99.90
20700;DHT22;10511;51.232;9.420;2022-12-18T00:36:41;-6.90;99.90
20700;DHT22;10511;51.232;9.420;2022-12-18T00:39:09;-6.90;99.90
20700;DHT22;10511;51.232;9.420;2022-12-18T00:41:36;-6.90;99.90
20700;DHT22;10511;51.232;9.420;2022-12-18T00:44:20;-6.90;99.90
20700;DHT22;10511;51.232;9.420;2022-12-18T00:46:48;-6.90;99.90
20700;DHT22;10511;51.232;9.420;2022-12-18T00:49:16;-6.90;99.90
20700;DHT22;10511;51.232;9.420;2022-12-18T00:51:44;-6.90;99.90
20700;DHT22;10511;51.232;9.420;2022-12-18T00:54:11;-7.10;99.90
20700;DHT22;10511;51.232;9.420;2022-12-18T00:56:39;-7.10;99.90
20700;DHT22;10511;51.232;9.420;2022-12-18T00:59:06;-7.00;99.90
20700;DHT22;10511;51.232;9.420;2022-12-18T01:01:33;-7.10;99.90
20700;DHT22;10511;51.232;9.420;2022-12-18T01:04:01;-7.10;99.90
20700;DHT22;10511;51.232;9.420;2022-12-18T01:06:28;-7.10;99.90
20700;DHT22;10511;51.232;9.420;2022-12-18T01:08:57;-7.20;99.90
20700;DHT22;10511;51.232;9.420;2022-12-18T01:11:24;-7.30;99.90
20700;DHT22;10511;51.232;9.420;2022-12-18T01:13:51;-7.30;99.90
20700;DHT22;10511;51.232;9.420;2022-12-18T01:16:19;-7.40;99.90
20700;DHT22;10511;51.232;9.420;2022-12-18T01:18:46;-7.30;99.90
20700;DHT22;10511;51.232;9.420;2022-12-18T01:21:14;-7.60;99.90
20700;DHT22;10511;51.232;9.420;2022-12-18T01:23:41;-7.50;99.90
20700;DHT22;10511;51.232;9.420;2022-12-18T01:26:12;-7.30;99.90
20700;DHT22;10511;51.232;9.420;2022-12-18T01:28:39;-7.40;99.90
20700;DHT22;10511;51.232;9.420;2022-12-18T01:31:15;-7.40;99.90
20700;DHT22;10511;51.232;9.420;2022-12-18T01:33:43;-7.40;99.90
20700;DHT22;10511;51.232;9.420;2022-12-18T01:36:15;-7.40;99.90
20700;DHT22;10511;51.232;9.420;2022-12-18T01:38:42;-7.30;99.90
20700;DHT22;10511;51.232;9.420;2022-12-18T01:41:10;-7.30;99.90
20700;DHT22;10511;51.232;9.420;2022-12-18T01:43:48;-7.30;99.90
20700;DHT22;10511;51.232;9.420;2022-12-18T01:46:17;-7.40;99.90
20700;DHT22;10511;51.232;9.420;2022-12-18T01:48:47;-7.40;99.90
20700;DHT22;10511;51.232;9.420;2022-12-18T01:51:15;-7.30;99.90
20700;DHT22;10511;51.232;9.420;2022-12-18T01:53:43;-7.20;99.90
20700;DHT22;10511;51.232;9.420;2022-12-18T01:56:15;-7.20;99.90
20700;DHT22;10511;51.232;9.420;2022-12-18T01:58:50;-7.40;99.90
20700;DHT22;10511;51.232;9.420;2022-12-18T02:01:21;-7.40;99.90
20700;DHT22;10511;51.232;9.420;2022-12-18T02:03:48;-7.40;99.90
20700;DHT22;10511;51.232;9.420;2022-12-18T02:06:19;-7.60;99.90
20700;DHT22;10511;51.232;9.420;2022-12-18T02:09:02;-7.70;99.90
20700;DHT22;10511;51.232;9.420;2022-12-18T02:11:40;-7.70;99.90
20700;DHT22;10511;51.232;9.420;2022-12-18T02:14:18;-7.70;99.90
20700;DHT22;10511;51.232;9.420;2022-12-18T02:16:52;-7.70;99.90
20700;DHT22;10511;51.232;9.420;2022-12-18T02:19:34;-7.70;99.90
20700;DHT22;10511;51.232;9.420;2022-12-18T02:22:20;-7.60;99.90
20700;DHT22;10511;51.232;9.420;2022-12-18T02:25:00;-7.60;99.90
20700;DHT22;10511;51.232;9.420;2022-12-18T02:27:34;-7.50;99.90
20700;DHT22;10511;51.232;9.420;2022-12-18T02:30:02;-7.50;99.90
20700;DHT22;10511;51.232;9.420;2022-12-18T02:32:34;-7.50;99.90
20700;DHT22;10511;51.232;9.420;2022-12-18T02:35:03;-7.50;99.90
20700;DHT22;10511;51.232;9.420;2022-12-18T02:37:32;-7.40;99.90
20700;DHT22;10511;51.232;9.420;2022-12-18T02:40:02;-7.40;99.90
20700;DHT22;10511;51.232;9.420;2022-12-18T02:42:30;-7.30;99.90
20700;DHT22;10511;51.232;9.420;2022-12-18T02:44:58;-7.20;99.90
20700;DHT22;10511;51.232;9.420;2022-12-18T02:47:29;-7.30;99.90
20700;DHT22;10511;51.232;9.420;2022-12-18T02:50:04;-7.40;99.90
20700;DHT22;10511;51.232;9.420;2022-12-18T02:52:35;-7.40;99.90
20700;DHT22;10511;51.232;9.420;2022-12-18T02:55:13;-7.30;99.90
20700;DHT22;10511;51.232;9.420;2022-12-18T02:57:46;-7.30;99.90
20700;DHT22;10511;51.232;9.420;2022-12-18T03:00:19;-7.30;99.90
20700;DHT22;10511;51.232;9.420;2022-12-18T03:02:51;-7.30;99.90
20700;DHT22;10511;51.232;9.420;2022-12-18T03:05:22;-7.40;99.90
20700;DHT22;10511;51.232;9.420;2022-12-18T03:07:55;-7.40;99.90
20700;DHT22;10511;51.232;9.420;2022-12-18T03:10:27;-7.50;99.90
20700;DHT22;10511;51.232;9.420;2022-12-18T03:12:59;-7.50;99.90
20700;DHT22;10511;51.232;9.420;2022-12-18T03:15:31;-7.50;99.90
20700;DHT22;10511;51.232;9.420;2022-12-18T03:18:03;-7.40;99.90
20700;DHT22;10511;51.232;9.420;2022-12-18T03:20:34;-7.50;99.90
20700;DHT22;10511;51.232;9.420;2022-12-18T03:23:06;-7.60;99.90
20700;DHT22;10511;51.232;9.420;2022-12-18T03:25:35;-7.60;99.90
20700;DHT22;10511;51.232;9.420;2022-12-18T03:28:03;-7.80;99.90
20700;DHT22;10511;51.232;9.420;2022-12-18T03:30:37;-8.10;99.90
20700;DHT22;10511;51.232;9.420;2022-12-18T03:33:08;-8.00;99.90
20700;DHT22;10511;51.232;9.420;2022-12-18T03:35:40;-8.00;99.90
20700;DHT22;10511;51.232;9.420;2022-12-18T03:38:09;-8.00;99.90
20700;DHT22;10511;51.232;9.420;2022-12-18T03:40:45;-7.90;99.90
20700;DHT22;10511;51.232;9.420;2022-12-18T03:43:20;-8.00;99.90
20700;DHT22;10511;51.232;9.420;2022-12-18T03:45:57;-8.10;99.90
20700;DHT22;10511;51.232;9.420;2022-12-18T03:48:29;-8.20;99.90
20700;DHT22;10511;51.232;9.420;2022-12-18T03:51:03;-8.10;99.90
20700;DHT22;10511;51.232;9.420;2022-12-18T03:53:35;-8.20;99.90
20700;DHT22;10511;51.232;9.420;2022-12-18T03:56:05;-8.10;99.90
20700;DHT22;10511;51.232;9.420;2022-12-18T03:58:33;-7.90;99.90
20700;DHT22;10511;51.232;9.420;2022-12-18T04:01:05;-7.80;99.90
20700;DHT22;10511;51.232;9.420;2022-12-18T04:03:34;-7.70;99.90
20700;DHT22;10511;51.232;9.420;2022-12-18T04:06:02;-7.70;99.90
20700;DHT22;10511;51.232;9.420;2022-12-18T04:08:30;-7.80;99.90
20700;DHT22;10511;51.232;9.420;2022-12-18T04:10:57;-7.80;99.90
20700;DHT22;10511;51.232;9.420;2022-12-18T04:13:25;-7.90;99.90
20700;DHT22;10511;51.232;9.420;2022-12-18T04:15:54;-7.80;99.90
20700;DHT22;10511;51.232;9.420;2022-12-18T04:18:22;-8.00;99.90
20700;DHT22;10511;51.232;9.420;2022-12-18T04:20:49;-8.10;99.90
20700;DHT22;10511;51.232;9.420;2022-12-18T04:23:16;-8.20;99.90
20700;DHT22;10511;51.232;9.420;2022-12-18T04:25:43;-8.20;99.90
20700;DHT22;10511;51.232;9.420;2022-12-18T04:28:10;-8.40;99.90
20700;DHT22;10511;51.232;9.420;2022-12-18T04:30:37;-8.70;99.90
20700;DHT22;10511;51.232;9.420;2022-12-18T04:33:08;-8.90;99.90
20700;DHT22;10511;51.232;9.420;2022-12-18T04:35:37;-8.80;99.90
20700;DHT22;10511;51.232;9.420;2022-12-18T04:38:05;-8.60;99.90
20700;DHT22;10511;51.232;9.420;2022-12-18T04:40:35;-8.50;99.90
20700;DHT22;10511;51.232;9.420;2022-12-18T04:43:02;-8.40;99.90
20700;DHT22;10511;51.232;9.420;2022-12-18T04:45:29;-8.20;99.90
20700;DHT22;10511;51.232;9.420;2022-12-18T04:47:57;-8.10;99.90
20700;DHT22;10511;51.232;9.420;2022-12-18T04:50:24;-8.10;99.90
20700;DHT22;10511;51.232;9.420;2022-12-18T04:52:52;-8.20;99.90
20700;DHT22;10511;51.232;9.420;2022-12-18T04:55:19;-8.10;99.90
20700;DHT22;10511;51.232;9.420;2022-12-18T04:57:46;-7.90;99.90
20700;DHT22;10511;51.232;9.420;2022-12-18T05:00:14;-7.80;99.90
20700;DHT22;10511;51.232;9.420;2022-12-18T05:02:41;-7.80;99.90
20700;DHT22;10511;51.232;9.420;2022-12-18T05:05:08;-8.20;99.90
20700;DHT22;10511;51.232;9.420;2022-12-18T05:07:35;-8.50;99.90
20700;DHT22;10511;51.232;9.420;2022-12-18T05:10:04;-8.60;99.90
20700;DHT22;10511;51.232;9.420;2022-12-18T05:12:32;-8.60;99.90
20700;DHT22;10511;51.232;9.420;2022-12-18T05:14:59;-8.50;99.90
20700;DHT22;10511;51.232;9.420;2022-12-18T05:17:26;-8.50;99.90
20700;DHT22;10511;51.232;9.420;2022-12-18T05:19:53;-8.60;99.90
20700;DHT22;10511;51.232;9.420;2022-12-18T05:22:20;-8.60;99.90
20700;DHT22;10511;51.232;9.420;2022-12-18T05:24:47;-8.80;99.90
20700;DHT22;10511;51.232;9.420;2022-12-18T05:27:15;-8.80;99.90
20700;DHT22;10511;51.232;9.420;2022-12-18T05:29:42;-8.60;99.90
20700;DHT22;10511;51.232;9.420;2022-12-18T05:32:09;-8.50;99.90
20700;DHT22;10511;51.232;9.420;2022-12-18T05:34:36;-8.40;99.90
20700;DHT22;10511;51.232;9.420;2022-12-18T05:37:02;-8.30;99.90
20700;DHT22;10511;51.232;9.420;2022-12-18T05:39:29;-8.40;99.90
20700;DHT22;10511;51.232;9.420;2022-12-18T05:41:56;-8.30;99.90
20700;DHT22;10511;51.232;9.420;2022-12-18T05:44:25;-8.20;99.90
20700;DHT22;10511;51.232;9.420;2022-12-18T05:46:52;-8.20;99.90
20700;DHT22;10511;51.232;9.420;2022-12-18T05:49:19;-8.40;99.90
20700;DHT22;10511;51.232;9.420;2022-12-18T05:51:46;-8.60;99.90
20700;DHT22;10511;51.232;9.420;2022-12-18T05:54:13;-8.90;99.90
20700;DHT22;10511;51.232;9.420;2022-12-18T05:56:39;-9.10;99.90
20700;DHT22;10511;51.232;9.420;2022-12-18T05:59:06;-9.00;99.90
20700;DHT22;10511;51.232;9.420;2022-12-18T06:01:35;-8.90;99.90
20700;DHT22;10511;51.232;9.420;2022-12-18T06:04:02;-8.90;99.90
20700;DHT22;10511;51.232;9.420;2022-12-18T06:06:29;-9.20;99.90
20700;DHT22;10511;51.232;9.420;2022-12-18T06:08:56;-9.50;99.90
20700;DHT22;10511;51.232;9.420;2022-12-18T06:11:24;-9.60;99.90
20700;DHT22;10511;51.232;9.420;2022-12-18T06:13:51;-9.60;99.90
20700;DHT22;10511;51.232;9.420;2022-12-18T06:16:18;-9.60;99.90
20700;DHT22;10511;51.232;9.420;2022-12-18T06:18:47;-9.40;99.90
20700;DHT22;10511;51.232;9.420;2022-12-18T06:21:14;-9.30;99.90
20700;DHT22;10511;51.232;9.420;2022-12-18T06:23:41;-9.30;99.90
20700;DHT22;10511;51.232;9.420;2022-12-18T06:26:09;-9.30;99.90
20700;DHT22;10511;51.232;9.420;2022-12-18T06:28:37;-9.30;99.90
20700;DHT22;10511;51.232;9.420;2022-12-18T06:31:04;-9.20;99.90
20700;DHT22;10511;51.232;9.420;2022-12-18T06:33:31;-9.40;99.90
20700;DHT22;10511;51.232;9.420;2022-12-18T06:36:02;-9.50;99.90
20700;DHT22;10511;51.232;9.420;2022-12-18T06:38:30;-9.40;99.90
20700;DHT22;10511;51.232;9.420;2022-12-18T06:40:57;-9.30;99.90
20700;DHT22;10511;51.232;9.420;2022-12-18T06:43:24;-9.20;99.90
20700;DHT22;10511;51.232;9.420;2022-12-18T06:45:51;-9.00;99.90
20700;DHT22;10511;51.232;9.420;2022-12-18T06:48:24;-8.80;99.90
20700;DHT22;10511;51.232;9.420;2022-12-18T06:50:50;-8.50;99.90
20700;DHT22;10511;51.232;9.420;2022-12-18T06:53:19;-8.50;99.90
20700;DHT22;10511;51.232;9.420;2022-12-18T06:55:46;-8.50;99.90
20700;DHT22;10511;51.232;9.420;2022-12-18T06:58:13;-8.40;99.90
20700;DHT22;10511;51.232;9.420;2022-12-18T07:00:40;-8.50;99.90
20700;DHT22;10511;51.232;9.420;2022-12-18T07:03:07;-8.30;99.90
20700;DHT22;10511;51.232;9.420;2022-12-18T07:05:34;-8.40;99.90
20700;DHT22;10511;51.232;9.420;2022-12-18T07:08:01;-8.70;99.90
20700;DHT22;10511;51.232;9.420;2022-12-18T07:10:29;-8.70;99.90
20700;DHT22;10511;51.232;9.420;2022-12-18T07:12:56;-8.80;99.90
20700;DHT22;10511;51.232;9.420;2022-12-18T07:15:23;-8.90;99.90
20700;DHT22;10511;51.232;9.420;2022-12-18T07:17:50;-8.70;99.90
20700;DHT22;10511;51.232;9.420;2022-12-18T07:20:17;-8.60;99.90
20700;DHT22;10511;51.232;9.420;2022-12-18T07:22:44;-8.60;99.90
20700;DHT22;10511;51.232;9.420;2022-12-18T07:25:11;-8.50;99.90
20700;DHT22;10511;51.232;9.420;2022-12-18T07:27:39;-8.50;99.90
20700;DHT22;10511;51.232;9.420;2022-12-18T07:30:07;-8.50;99.90
20700;DHT22;10511;51.232;9.420;2022-12-18T07:32:35;-8.50;99.90
20700;DHT22;10511;51.232;9.420;2022-12-18T07:35:02;-8.60;99.90
20700;DHT22;10511;51.232;9.420;2022-12-18T07:37:29;-8.70;99.90
20700;DHT22;10511;51.232;9.420;2022-12-18T07:39:56;-8.70;99.90
20700;DHT22;10511;51.232;9.420;2022-12-18T07:42:23;-8.70;99.90
20700;DHT22;10511;51.232;9.420;2022-12-18T07:45:00;-8.90;99.90
20700;DHT22;10511;51.232;9.420;2022-12-18T07:47:27;-9.20;99.90
20700;DHT22;10511;51.232;9.420;2022-12-18T07:49:54;-9.50;99.90
20700;DHT22;10511;51.232;9.420;2022-12-18T07:52:21;-9.40;99.90
20700;DHT22;10511;51.232;9.420;2022-12-18T07:54:48;-9.40;99.90
20700;DHT22;10511;51.232;9.420;2022-12-18T07:57:15;-9.20;99.90
20700;DHT22;10511;51.232;9.420;2022-12-18T07:59:42;-9.10;99.90
20700;DHT22;10511;51.232;9.420;2022-12-18T08:02:11;-9.00;99.90
20700;DHT22;10511;51.232;9.420;2022-12-18T08:04:38;-8.90;99.90
20700;DHT22;10511;51.232;9.420;2022-12-18T08:07:05;-8.90;99.90
20700;DHT22;10511;51.232;9.420;2022-12-18T08:09:31;-8.90;99.90
20700;DHT22;10511;51.232;9.420;2022-12-18T08:11:58;-9.00;99.90
20700;DHT22;10511;51.232;9.420;2022-12-18T08:14:25;-9.00;99.90
20700;DHT22;10511;51.232;9.420;2022-12-18T08:16:52;-9.00;99.90
20700;DHT22;10511;51.232;9.420;2022-12-18T08:19:21;-8.90;99.90
20700;DHT22;10511;51.232;9.420;2022-12-18T08:21:48;-8.70;99.90
20700;DHT22;10511;51.232;9.420;2022-12-18T08:24:14;-8.60;99.90
20700;DHT22;10511;51.232;9.420;2022-12-18T08:26:41;-8.50;99.90
20700;DHT22;10511;51.232;9.420;2022-12-18T08:29:09;-8.50;99.90
20700;DHT22;10511;51.232;9.420;2022-12-18T08:31:36;-8.50;99.90
20700;DHT22;10511;51.232;9.420;2022-12-18T08:34:03;-8.60;99.90
20700;DHT22;10511;51.232;9.420;2022-12-18T08:36:31;-8.70;99.90
20700;DHT22;10511;51.232;9.420;2022-12-18T08:38:59;-8.60;99.90
20700;DHT22;10511;51.232;9.420;2022-12-18T08:41:28;-8.60;99.90
20700;DHT22;10511;51.232;9.420;2022-12-18T08:43:55;-8.60;99.90
20700;DHT22;10511;51.232;9.420;2022-12-18T08:46:41;-8.50;99.90
20700;DHT22;10511;51.232;9.420;2022-12-18T08:49:09;-8.40;99.90
20700;DHT22;10511;51.232;9.420;2022-12-18T08:51:38;-8.30;99.90
20700;DHT22;10511;51.232;9.420;2022-12-18T08:54:05;-8.20;99.90
20700;DHT22;10511;51.232;9.420;2022-12-18T08:56:33;-8.10;99.90
20700;DHT22;10511;51.232;9.420;2022-12-18T08:59:00;-8.20;99.90
20700;DHT22;10511;51.232;9.420;2022-12-18T09:01:28;-8.40;99.90
20700;DHT22;10511;51.232;9.420;2022-12-18T09:03:58;-8.30;99.90
20700;DHT22;10511;51.232;9.420;2022-12-18T09:06:25;-8.20;99.90
20700;DHT22;10511;51.232;9.420;2022-12-18T09:08:53;-8.10;99.90
20700;DHT22;10511;51.232;9.420;2022-12-18T09:11:21;-8.00;99.90
20700;DHT22;10511;51.232;9.420;2022-12-18T09:13:49;-8.10;99.90
20700;DHT22;10511;51.232;9.420;2022-12-18T09:16:17;-8.20;99.90
20700;DHT22;10511;51.232;9.420;2022-12-18T09:18:45;-8.40;99.90
20700;DHT22;10511;51.232;9.420;2022-12-18T09:21:14;-8.40;99.90
20700;DHT22;10511;51.232;9.420;2022-12-18T09:23:42;-8.30;99.90
20700;DHT22;10511;51.232;9.420;2022-12-18T09:26:10;-8.20;99.90
20700;DHT22;10511;51.232;9.420;2022-12-18T09:28:37;-8.20;99.90
20700;DHT22;10511;51.232;9.420;2022-12-18T09:31:06;-8.10;99.90
20700;DHT22;10511;51.232;9.420;2022-12-18T09:33:34;-7.90;99.90
20700;DHT22;10511;51.232;9.420;2022-12-18T09:36:02;-7.80;99.90
20700;DHT22;10511;51.232;9.420;2022-12-18T09:38:29;-7.70;99.90
20700;DHT22;10511;51.232;9.420;2022-12-18T09:41:00;-7.70;99.90
20700;DHT22;10511;51.232;9.420;2022-12-18T09:43:35;-7.60;99.90
20700;DHT22;10511;51.232;9.420;2022-12-18T09:46:07;-7.50;99.90
20700;DHT22;10511;51.232;9.420;2022-12-18T09:48:36;-7.40;99.90
20700;DHT22;10511;51.232;9.420;2022-12-18T09:51:13;-7.20;99.90
20700;DHT22;10511;51.232;9.420;2022-12-18T09:53:41;-7.10;99.90
20700;DHT22;10511;51.232;9.420;2022-12-18T09:56:15;-7.00;99.90
20700;DHT22;10511;51.232;9.420;2022-12-18T09:58:49;-6.90;99.90
20700;DHT22;10511;51.232;9.420;2022-12-18T10:01:21;-6.90;99.90
20700;DHT22;10511;51.232;9.420;2022-12-18T10:03:49;-6.90;99.90
20700;DHT22;10511;51.232;9.420;2022-12-18T10:06:21;-6.90;99.90
20700;DHT22;10511;51.232;9.420;2022-12-18T10:08:56;-6.80;99.90
20700;DHT22;10511;51.232;9.420;2022-12-18T10:11:32;-6.60;99.90
20700;DHT22;10511;51.232;9.420;2022-12-18T10:14:08;-6.40;99.90
20700;DHT22;10511;51.232;9.420;2022-12-18T10:16:41;-6.20;99.90
20700;DHT22;10511;51.232;9.420;2022-12-18T10:19:39;-6.10;99.90
20700;DHT22;10511;51.232;9.420;2022-12-18T10:22:22;-5.90;99.90
20700;DHT22;10511;51.232;9.420;2022-12-18T10:24:55;-5.80;99.90
20700;DHT22;10511;51.232;9.420;2022-12-18T10:27:26;-5.70;99.90
20700;DHT22;10511;51.232;9.420;2022-12-18T10:29:54;-5.80;99.90
20700;DHT22;10511;51.232;9.420;2022-12-18T10:32:23;-5.80;99.90
20700;DHT22;10511;51.232;9.420;2022-12-18T10:34:55;-5.80;99.90
20700;DHT22;10511;51.232;9.420;2022-12-18T10:37:24;-5.70;99.90
20700;DHT22;10511;51.232;9.420;2022-12-18T10:40:10;-5.60;99.90
20700;DHT22;10511;51.232;9.420;2022-12-18T10:42:38;-5.70;99.90
20700;DHT22;10511;51.232;9.420;2022-12-18T10:45:11;-5.70;99.90
20700;DHT22;10511;51.232;9.420;2022-12-18T10:47:43;-5.60;99.90
20700;DHT22;10511;51.232;9.420;2022-12-18T10:50:19;-5.50;99.90
20700;DHT22;10511;51.232;9.420;2022-12-18T10:52:54;-5.40;99.90
20700;DHT22;10511;51.232;9.420;2022-12-18T10:55:22;-5.20;99.90
20700;DHT22;10511;51.232;9.420;2022-12-18T10:57:49;-5.10;99.90
20700;DHT22;10511;51.232;9.420;2022-12-18T11:00:24;-5.10;99.90
20700;DHT22;10511;51.232;9.420;2022-12-18T11:02:52;-4.90;99.90
20700;DHT22;10511;51.232;9.420;2022-12-18T11:05:27;-4.90;99.90
20700;DHT22;10511;51.232;9.420;2022-12-18T11:07:55;-4.90;99.90
20700;DHT22;10511;51.232;9.420;2022-12-18T11:10:26;-4.80;99.90
20700;DHT22;10511;51.232;9.420;2022-12-18T11:12:54;-4.60;99.90
20700;DHT22;10511;51.232;9.420;2022-12-18T11:15:26;-4.70;99.90
20700;DHT22;10511;51.232;9.420;2022-12-18T11:17:55;-4.90;99.90
20700;DHT22;10511;51.232;9.420;2022-12-18T11:20:31;-4.80;99.90
20700;DHT22;10511;51.232;9.420;2022-12-18T11:22:59;-4.70;99.90
20700;DHT22;10511;51.232;9.420;2022-12-18T11:25:27;-4.60;99.90
20700;DHT22;10511;51.232;9.420;2022-12-18T11:27:56;-4.60;99.90
20700;DHT22;10511;51.232;9.420;2022-12-18T11:30:26;-4.60;99.90
20700;DHT22;10511;51.232;9.420;2022-12-18T11:32:56;-4.50;99.90
20700;DHT22;10511;51.232;9.420;2022-12-18T11:35:38;-4.60;99.90
20700;DHT22;10511;51.232;9.420;2022-12-18T11:38:14;-4.60;99.90
20700;DHT22;10511;51.232;9.420;2022-12-18T11:40:49;-4.50;99.90
20700;DHT22;10511;51.232;9.420;2022-12-18T11:43:24;-4.50;99.90
20700;DHT22;10511;51.232;9.420;2022-12-18T11:45:59;-4.60;99.90
20700;DHT22;10511;51.232;9.420;2022-12-18T11:48:29;-4.60;99.90
20700;DHT22;10511;51.232;9.420;2022-12-18T11:50:58;-4.60;99.90
20700;DHT22;10511;51.232;9.420;2022-12-18T11:53:27;-4.40;99.90
20700;DHT22;10511;51.232;9.420;2022-12-18T11:56:03;-4.40;99.90
20700;DHT22;10511;51.232;9.420;2022-12-18T11:58:42;-4.20;99.90
20700;DHT22;10511;51.232;9.420;2022-12-18T12:01:19;-4.00;99.90
20700;DHT22;10511;51.232;9.420;2022-12-18T12:06:48;-3.70;99.90
20700;DHT22;10511;51.232;9.420;2022-12-18T12:09:23;-3.70;99.90
20700;DHT22;10511;51.232;9.420;2022-12-18T12:12:01;-3.70;99.90
20700;DHT22;10511;51.232;9.420;2022-12-18T12:14:42;-3.80;99.90
20700;DHT22;10511;51.232;9.420;2022-12-18T12:17:18;-3.80;99.90
20700;DHT22;10511;51.232;9.420;2022-12-18T12:19:54;-4.00;99.90
20700;DHT22;10511;51.232;9.420;2022-12-18T12:22:30;-3.90;99.90
20700;DHT22;10511;51.232;9.420;2022-12-18T12:25:10;-3.90;99.90
20700;DHT22;10511;51.232;9.420;2022-12-18T12:27:45;-3.90;99.90
20700;DHT22;10511;51.232;9.420;2022-12-18T12:30:20;-3.90;99.90
20700;DHT22;10511;51.232;9.420;2022-12-18T12:33:10;-3.90;99.90
20700;DHT22;10511;51.232;9.420;2022-12-18T12:35:47;-3.80;99.90
20700;DHT22;10511;51.232;9.420;2022-12-18T12:38:21;-3.70;99.90
20700;DHT22;10511;51.232;9.420;2022-12-18T12:40:57;-3.70;99.90
20700;DHT22;10511;51.232;9.420;2022-12-18T12:43:33;-3.60;99.90
20700;DHT22;10511;51.232;9.420;2022-12-18T12:46:04;-3.60;99.90
20700;DHT22;10511;51.232;9.420;2022-12-18T12:48:36;-3.50;99.90
20700;DHT22;10511;51.232;9.420;2022-12-18T12:51:10;-3.60;99.90
20700;DHT22;10511;51.232;9.420;2022-12-18T12:53:39;-3.50;99.90
20700;DHT22;10511;51.232;9.420;2022-12-18T12:56:09;-3.40;99.90
20700;DHT22;10511;51.232;9.420;2022-12-18T12:58:45;-3.40;99.90
20700;DHT22;10511;51.232;9.420;2022-12-18T13:01:22;-3.30;99.90
20700;DHT22;10511;51.232;9.420;2022-12-18T13:04:00;-3.30;99.90
20700;DHT22;10511;51.232;9.420;2022-12-18T13:06:40;-3.30;99.90
20700;DHT22;10511;51.232;9.420;2022-12-18T13:09:09;-3.30;99.90
20700;DHT22;10511;51.232;9.420;2022-12-18T13:11:38;-3.30;99.90
20700;DHT22;10511;51.232;9.420;2022-12-18T13:14:28;-3.30;99.90
20700;DHT22;10511;51.232;9.420;2022-12-18T13:17:16;-3.20;99.90
20700;DHT22;10511;51.232;9.420;2022-12-18T13:19:47;-3.20;99.90
20700;DHT22;10511;51.232;9.420;2022-12-18T13:22:22;-3.20;99.90
20700;DHT22;10511;51.232;9.420;2022-12-18T13:24:50;-3.20;99.90
20700;DHT22;10511;51.232;9.420;2022-12-18T13:27:54;-3.10;99.90
20700;DHT22;10511;51.232;9.420;2022-12-18T13:30:51;-3.20;99.90
20700;DHT22;10511;51.232;9.420;2022-12-18T13:33:48;-3.30;99.90
20700;DHT22;10511;51.232;9.420;2022-12-18T13:36:29;-3.20;99.90
20700;DHT22;10511;51.232;9.420;2022-12-18T13:42:39;-3.10;99.90
20700;DHT22;10511;51.232;9.420;2022-12-18T13:45:42;-3.10;99.90
20700;DHT22;10511;51.232;9.420;2022-12-18T13:48:23;-3.20;99.90
20700;DHT22;10511;51.232;9.420;2022-12-18T13:50:59;-3.20;99.90
20700;DHT22;10511;51.232;9.420;2022-12-18T13:53:33;-3.20;99.90
20700;DHT22;10511;51.232;9.420;2022-12-18T13:56:01;-3.20;99.90
20700;DHT22;10511;51.232;9.420;2022-12-18T13:58:28;-3.20;99.90
20700;DHT22;10511;51.232;9.420;2022-12-18T14:00:55;-3.20;99.90
20700;DHT22;10511;51.232;9.420;2022-12-18T14:03:24;-3.20;99.90
20700;DHT22;10511;51.232;9.420;2022-12-18T14:05:54;-3.20;99.90
20700;DHT22;10511;51.232;9.420;2022-12-18T14:08:33;-3.20;99.90
20700;DHT22;10511;51.232;9.420;2022-12-18T14:11:01;-3.20;99.90
20700;DHT22;10511;51.232;9.420;2022-12-18T14:13:33;-3.20;99.90
20700;DHT22;10511;51.232;9.420;2022-12-18T14:16:01;-3.20;99.90
20700;DHT22;10511;51.232;9.420;2022-12-18T14:18:36;-3.20;99.90
20700;DHT22;10511;51.232;9.420;2022-12-18T14:21:05;-3.20;99.90
20700;DHT22;10511;51.232;9.420;2022-12-18T14:23:36;-3.20;99.90
20700;DHT22;10511;51.232;9.420;2022-12-18T14:26:20;-3.30;99.90
20700;DHT22;10511;51.232;9.420;2022-12-18T14:28:48;-3.40;99.90
20700;DHT22;10511;51.232;9.420;2022-12-18T14:31:19;-3.50;99.90
20700;DHT22;10511;51.232;9.420;2022-12-18T14:33:46;-3.60;99.90
20700;DHT22;10511;51.232;9.420;2022-12-18T14:36:16;-3.60;99.90
20700;DHT22;10511;51.232;9.420;2022-12-18T14:38:48;-3.60;99.90
20700;DHT22;10511;51.232;9.420;2022-12-18T14:41:17;-3.60;99.90
20700;DHT22;10511;51.232;9.420;2022-12-18T14:43:45;-3.60;99.90
20700;DHT22;10511;51.232;9.420;2022-12-18T14:46:32;-3.60;99.90
20700;DHT22;10511;51.232;9.420;2022-12-18T14:49:02;-3.60;99.90
20700;DHT22;10511;51.232;9.420;2022-12-18T14:51:31;-3.60;99.90
20700;DHT22;10511;51.232;9.420;2022-12-18T14:54:02;-3.60;99.90
20700;DHT22;10511;51.232;9.420;2022-12-18T14:56:31;-3.60;99.90
20700;DHT22;10511;51.232;9.420;2022-12-18T14:59:01;-3.70;99.90
20700;DHT22;10511;51.232;9.420;2022-12-18T15:01:30;-3.80;99.90
20700;DHT22;10511;51.232;9.420;2022-12-18T15:03:59;-3.90;99.90
20700;DHT22;10511;51.232;9.420;2022-12-18T15:06:29;-3.80;99.90
20700;DHT22;10511;51.232;9.420;2022-12-18T15:08:59;-3.80;99.90
20700;DHT22;10511;51.232;9.420;2022-12-18T15:11:30;-3.80;99.90
20700;DHT22;10511;51.232;9.420;2022-12-18T15:13:58;-3.90;99.90
20700;DHT22;10511;51.232;9.420;2022-12-18T15:16:26;-3.90;99.90
20700;DHT22;10511;51.232;9.420;2022-12-18T15:18:53;-3.80;99.90
20700;DHT22;10511;51.232;9.420;2022-12-18T15:21:20;-3.80;99.90
20700;DHT22;10511;51.232;9.420;2022-12-18T15:23:49;-3.90;99.90
20700;DHT22;10511;51.232;9.420;2022-12-18T15:26:20;-3.90;99.90
20700;DHT22;10511;51.232;9.420;2022-12-18T15:28:49;-4.00;99.90
20700;DHT22;10511;51.232;9.420;2022-12-18T15:31:30;-4.00;99.90
20700;DHT22;10511;51.232;9.420;2022-12-18T15:34:09;-4.00;99.90
20700;DHT22;10511;51.232;9.420;2022-12-18T15:36:37;-4.00;99.90
20700;DHT22;10511;51.232;9.420;2022-12-18T15:39:05;-4.00;99.90
20700;DHT22;10511;51.232;9.420;2022-12-18T15:41:35;-4.00;99.90
20700;DHT22;10511;51.232;9.420;2022-12-18T15:44:03;-4.00;99.90
20700;DHT22;10511;51.232;9.420;2022-12-18T15:46:29;-4.00;99.90
20700;DHT22;10511;51.232;9.420;2022-12-18T15:48:57;-3.90;99.90
20700;DHT22;10511;51.232;9.420;2022-12-18T15:51:26;-3.90;99.90
20700;DHT22;10511;51.232;9.420;2022-12-18T15:53:56;-4.00;99.90
20700;DHT22;10511;51.232;9.420;2022-12-18T15:56:23;-4.00;99.90
20700;DHT22;10511;51.232;9.420;2022-12-18T15:59:11;-4.00;99.90